createdAt,value
2022-08-22T00:00:59.770Z,78.51
2022-08-22T00:03:06.628Z,75.19
2022-08-22T00:03:09.129Z,64.23
2022-08-22T00:03:28.918Z,79.32
2022-08-22T00:06:11.639Z,79.51
2022-08-22T00:08:38.506Z,79.97
2022-08-22T00:11:14.468Z,80.44
2022-08-22T00:14:01.803Z,80.29
2022-08-22T00:16:28.925Z,79.70
2022-08-22T00:19:13.861Z,80.62
2022-08-22T00:21:56.672Z,80.23
2022-08-22T00:24:49.591Z,80.17
2022-08-22T00:27:18.295Z,79.57
2022-08-22T00:29:56.404Z,80.24
2022-08-22T00:32:33.260Z,81.32
2022-08-22T00:35:02.888Z,80.97
2022-08-22T00:37:33.431Z,81.60
2022-08-22T00:40:08.144Z,81.65
2022-08-22T00:42:53.942Z,82.26
2022-08-22T00:45:26.752Z,82.89
2022-08-22T00:47:56.401Z,83.87
2022-08-22T00:50:41.937Z,83.51
2022-08-22T00:53:08.793Z,83.83
2022-08-22T00:55:42.942Z,84.02
2022-08-22T00:58:35.875Z,83.73
2022-08-22T01:01:06.040Z,84.05
2022-08-22T01:03:56.009Z,83.82
2022-08-22T01:06:40.598Z,84.43
2022-08-22T01:09:19.441Z,83.36
2022-08-22T01:11:46.344Z,82.89
2022-08-22T01:14:35.024Z,83.51
2022-08-22T01:17:14.536Z,84.75
2022-08-22T01:19:41.390Z,84.41
2022-08-22T01:22:27.141Z,84.22
2022-08-22T01:25:00.344Z,85.15
2022-08-22T01:27:42.253Z,85.95
2022-08-22T01:30:11.926Z,85.16
2022-08-22T01:32:57.156Z,85.24
2022-08-22T01:35:31.074Z,85.32
2022-08-22T01:38:16.771Z,84.93
2022-08-22T01:40:53.843Z,85.93
2022-08-22T01:43:58.535Z,86.10
2022-08-22T01:46:21.542Z,86.39
2022-08-22T01:48:56.028Z,86.08
2022-08-22T01:51:27.051Z,85.69
2022-08-22T01:54:03.088Z,85.06
2022-08-22T01:56:35.078Z,86.39
2022-08-22T01:59:05.067Z,85.91
2022-08-22T02:01:50.212Z,85.60
2022-08-22T02:04:17.069Z,85.14
2022-08-22T02:07:02.504Z,85.11
2022-08-22T02:09:38.612Z,85.85
2022-08-22T02:12:32.015Z,85.07
2022-08-22T02:15:08.065Z,85.54
2022-08-22T02:17:48.021Z,86.63
2022-08-22T02:20:20.674Z,86.20
2022-08-22T02:22:53.655Z,86.93
2022-08-22T02:25:25.911Z,88.32
2022-08-22T02:28:13.151Z,88.10
2022-08-22T02:30:46.203Z,88.84
2022-08-22T02:33:16.078Z,87.80
2022-08-22T02:35:51.376Z,88.75
2022-08-22T02:38:25.224Z,88.62
2022-08-22T02:41:09.681Z,88.29
2022-08-22T02:43:57.262Z,87.27
2022-08-22T02:46:39.876Z,87.28
2022-08-22T02:49:21.047Z,87.82
2022-08-22T02:51:50.988Z,88.72
2022-08-22T02:54:22.436Z,88.73
2022-08-22T02:56:53.680Z,87.70
2022-08-22T02:59:20.509Z,87.76
2022-08-22T03:01:48.092Z,87.42
2022-08-22T03:04:44.457Z,87.97
2022-08-22T03:07:14.496Z,87.65
2022-08-22T03:09:47.554Z,88.94
2022-08-22T03:12:14.536Z,90.16
2022-08-22T03:14:44.749Z,90.26
2022-08-22T03:17:18.818Z,90.09
2022-08-22T03:20:04.634Z,90.40
2022-08-22T03:22:38.812Z,89.60
2022-08-22T03:25:11.680Z,89.26
2022-08-22T03:27:46.222Z,90.08
2022-08-22T03:30:21.622Z,89.29
2022-08-22T03:32:57.083Z,89.10
2022-08-22T03:35:33.016Z,89.72
2022-08-22T03:38:17.112Z,90.45
2022-08-22T03:41:03.195Z,91.12
2022-08-22T03:43:39.225Z,91.58
2022-08-22T03:46:24.778Z,90.88
2022-08-22T03:49:08.149Z,90.08
2022-08-22T03:51:38.158Z,90.10
2022-08-22T03:54:23.669Z,91.78
2022-08-22T03:56:57.485Z,91.83
2022-08-22T03:59:44.054Z,91.54
2022-08-22T04:02:43.798Z,91.36
2022-08-22T04:05:29.804Z,92.24
2022-08-22T04:07:59.912Z,92.41
2022-08-22T04:10:39.452Z,92.12
2022-08-22T04:13:33.893Z,92.11
2022-08-22T04:16:19.444Z,92.00
2022-08-22T04:18:49.358Z,91.97
2022-08-22T04:21:35.653Z,92.00
2022-08-22T04:24:05.594Z,93.02
2022-08-22T04:26:51.679Z,92.10
2022-08-22T04:29:25.742Z,92.19
2022-08-22T04:32:14.580Z,92.09
2022-08-22T04:34:48.845Z,92.37
2022-08-22T04:37:20.723Z,91.02
2022-08-22T04:39:47.651Z,91.80
2022-08-22T04:42:32.270Z,91.91
2022-08-22T04:45:06.154Z,91.75
2022-08-22T04:47:39.211Z,91.84
2022-08-22T04:50:42.576Z,91.94
2022-08-22T04:53:25.456Z,92.03
2022-08-22T04:55:58.484Z,91.82
2022-08-22T04:58:28.474Z,91.82
2022-08-22T05:01:12.204Z,91.69
2022-08-22T05:03:44.879Z,90.68
2022-08-22T05:06:13.962Z,89.58
2022-08-22T05:08:41.882Z,88.59
2022-08-22T05:11:10.814Z,88.08
2022-08-22T05:13:44.598Z,87.15
2022-08-22T05:16:15.066Z,86.64
2022-08-22T05:18:45.204Z,86.07
2022-08-22T05:21:13.885Z,84.75
2022-08-22T05:23:48.211Z,83.71
2022-08-22T05:26:15.524Z,83.46
2022-08-22T05:28:48.341Z,83.10
2022-08-22T05:31:24.977Z,81.99
2022-08-22T05:33:55.072Z,80.99
2022-08-22T05:36:24.371Z,80.52
2022-08-22T05:38:53.872Z,80.74
2022-08-22T05:41:24.003Z,80.36
2022-08-22T05:43:52.421Z,79.76
2022-08-22T05:46:26.782Z,79.83
2022-08-22T05:49:01.565Z,79.87
2022-08-22T05:51:39.453Z,79.13
2022-08-22T05:54:11.414Z,77.48
2022-08-22T05:56:43.282Z,78.20
2022-08-22T05:59:23.461Z,77.52
2022-08-22T06:01:59.373Z,77.79
2022-08-22T06:04:32.107Z,76.80
2022-08-22T06:07:13.665Z,76.98
2022-08-22T06:09:59.173Z,74.72
2022-08-22T06:12:38.262Z,74.99
2022-08-22T06:15:14.251Z,75.87
2022-08-22T06:17:48.758Z,74.19
2022-08-22T06:20:23.696Z,74.39
2022-08-22T06:22:55.838Z,73.84
2022-08-22T06:25:25.512Z,73.03
2022-08-22T06:27:53.239Z,73.72
2022-08-22T06:30:20.481Z,71.15
2022-08-22T06:32:59.767Z,71.60
2022-08-22T06:35:33.294Z,71.69
2022-08-22T06:38:00.435Z,70.36
2022-08-22T06:40:28.175Z,70.16
2022-08-22T06:42:57.076Z,70.31
2022-08-22T06:45:31.957Z,68.81
2022-08-22T06:48:05.291Z,67.91
2022-08-22T06:50:34.795Z,68.19
2022-08-22T06:53:34.918Z,68.34
2022-08-22T06:56:02.979Z,67.97
2022-08-22T06:58:34.115Z,67.27
2022-08-22T07:01:12.179Z,66.14
2022-08-22T07:03:54.217Z,65.96
2022-08-22T07:06:28.474Z,63.86
2022-08-22T07:08:55.747Z,63.19
2022-08-22T07:11:26.088Z,63.53
2022-08-22T07:14:14.150Z,62.38
2022-08-22T07:16:46.726Z,62.87
2022-08-22T07:19:23.510Z,62.12
2022-08-22T07:21:57.443Z,62.03
2022-08-22T07:24:27.303Z,61.27
2022-08-22T07:27:06.702Z,61.19
2022-08-22T07:29:41.571Z,60.34
2022-08-22T07:32:25.224Z,60.17
2022-08-22T07:35:11.610Z,59.93
2022-08-22T07:37:38.579Z,59.34
2022-08-22T07:40:26.808Z,60.25
2022-08-22T07:42:59.591Z,59.23
2022-08-22T07:45:45.176Z,59.19
2022-08-22T07:48:25.392Z,58.36
2022-08-22T07:50:52.658Z,58.31
2022-08-22T07:53:22.553Z,57.52
2022-08-22T07:55:53.245Z,56.78
2022-08-22T07:58:21.708Z,56.09
2022-08-22T08:00:48.819Z,55.97
2022-08-22T08:03:16.087Z,55.03
2022-08-22T08:05:46.434Z,54.75
2022-08-22T08:08:29.197Z,56.10
2022-08-22T08:10:57.397Z,53.68
2022-08-22T08:13:35.419Z,53.84
2022-08-22T08:16:04.781Z,53.34
2022-08-22T08:18:34.041Z,54.16
2022-08-22T08:21:06.828Z,53.17
2022-08-22T08:23:41.073Z,52.10
2022-08-22T08:26:20.784Z,52.27
2022-08-22T08:28:49.273Z,51.79
2022-08-22T08:31:19.280Z,52.10
2022-08-22T08:33:48.001Z,49.96
2022-08-22T08:36:26.829Z,50.98
2022-08-22T08:39:07.475Z,50.27
2022-08-22T08:41:46.870Z,49.92
2022-08-22T08:44:32.504Z,48.39
2022-08-22T08:47:18.170Z,47.30
2022-08-22T08:50:03.843Z,46.40
2022-08-22T08:52:39.160Z,46.39
2022-08-22T08:55:25.996Z,46.34
2022-08-22T08:58:06.550Z,46.89
2022-08-22T09:00:43.450Z,45.61
2022-08-22T09:03:29.829Z,44.44
2022-08-22T09:06:16.813Z,45.06
2022-08-22T09:08:59.121Z,45.00
2022-08-22T09:11:49.941Z,44.97
2022-08-22T09:14:36.112Z,44.31
2022-08-22T09:17:22.102Z,43.57
2022-08-22T09:20:17.585Z,44.25
2022-08-22T09:23:05.055Z,43.96
2022-08-22T09:25:40.950Z,43.97
2022-08-22T09:28:07.894Z,42.89
2022-08-22T09:30:43.893Z,43.80
2022-08-22T09:33:17.563Z,43.92
2022-08-22T09:36:05.186Z,43.57
2022-08-22T09:38:38.692Z,42.58
2022-08-22T09:41:08.533Z,42.77
2022-08-22T09:43:45.107Z,42.79
2022-08-22T09:46:15.630Z,42.96
2022-08-22T09:49:01.816Z,44.82
2022-08-22T09:51:35.530Z,46.48
2022-08-22T09:54:21.337Z,45.06
2022-08-22T09:56:51.784Z,44.35
2022-08-22T09:59:20.502Z,44.19
2022-08-22T10:01:47.476Z,44.75
2022-08-22T10:04:14.530Z,42.29
2022-08-22T10:07:06.467Z,41.94
2022-08-22T10:09:38.881Z,42.48
2022-08-22T10:12:15.838Z,41.49
2022-08-22T10:14:51.230Z,39.82
2022-08-22T10:17:28.180Z,41.37
2022-08-22T10:19:58.994Z,40.61
2022-08-22T10:22:29.936Z,40.34
2022-08-22T10:24:58.532Z,40.81
2022-08-22T10:27:36.601Z,41.75
2022-08-22T10:30:11.771Z,40.86
2022-08-22T10:32:50.178Z,39.92
2022-08-22T10:35:26.568Z,40.27
2022-08-22T10:37:56.239Z,39.87
2022-08-22T10:40:29.271Z,39.25
2022-08-22T10:43:09.357Z,38.99
2022-08-22T10:45:39.732Z,38.19
2022-08-22T10:48:19.061Z,39.17
2022-08-22T10:50:56.643Z,39.58
2022-08-22T10:53:40.558Z,39.65
2022-08-22T10:56:14.584Z,38.30
2022-08-22T10:58:49.054Z,37.90
2022-08-22T11:01:41.080Z,38.54
2022-08-22T11:04:16.341Z,38.38
2022-08-22T11:06:48.956Z,37.77
2022-08-22T11:09:37.025Z,37.26
2022-08-22T11:12:34.861Z,37.57
2022-08-22T11:15:14.629Z,37.10
2022-08-22T11:18:07.304Z,37.16
2022-08-22T11:20:46.289Z,37.07
2022-08-22T11:23:23.600Z,36.62
2022-08-22T11:26:05.046Z,35.64
2022-08-22T11:28:50.871Z,35.25
2022-08-22T11:31:47.199Z,34.79
2022-08-22T11:34:24.973Z,36.17
2022-08-22T11:37:00.508Z,35.25
2022-08-22T11:39:28.083Z,35.47
2022-08-22T11:41:59.880Z,36.02
2022-08-22T11:44:34.495Z,35.69
2022-08-22T11:47:19.058Z,34.23
2022-08-22T11:50:00.291Z,36.41
2022-08-22T11:52:39.320Z,36.82
2022-08-22T11:55:21.766Z,35.09
2022-08-22T11:57:50.959Z,36.34
2022-08-22T12:00:30.245Z,35.71
2022-08-22T12:02:57.128Z,36.58
2022-08-22T12:05:29.334Z,34.69
2022-08-22T12:08:21.338Z,34.63
2022-08-22T12:11:07.246Z,35.36
2022-08-22T12:13:37.357Z,35.73
2022-08-22T12:16:13.333Z,34.80
2022-08-22T12:18:43.238Z,34.57
2022-08-22T12:21:18.111Z,34.58
2022-08-22T12:23:54.651Z,33.77
2022-08-22T12:26:27.699Z,33.25
2022-08-22T12:28:57.494Z,33.56
2022-08-22T12:31:34.737Z,33.25
2022-08-22T12:34:09.079Z,34.08
2022-08-22T12:36:52.051Z,33.66
2022-08-22T12:39:29.159Z,33.77
2022-08-22T12:42:14.680Z,32.90
2022-08-22T12:45:01.823Z,32.63
2022-08-22T12:47:31.970Z,32.27
2022-08-22T12:50:19.264Z,33.24
2022-08-22T12:52:58.506Z,33.19
2022-08-22T12:55:30.661Z,33.90
2022-08-22T12:58:06.358Z,34.09
2022-08-22T13:00:44.088Z,34.09
2022-08-22T13:03:24.921Z,33.73
2022-08-22T13:05:57.032Z,33.76
2022-08-22T13:08:36.418Z,33.47
2022-08-22T13:11:10.009Z,33.01
2022-08-22T13:13:44.877Z,33.78
2022-08-22T13:16:24.435Z,32.68
2022-08-22T13:18:54.134Z,32.89
2022-08-22T13:21:27.557Z,33.11
2022-08-22T13:24:04.171Z,34.79
2022-08-22T13:26:34.522Z,33.56
2022-08-22T13:29:25.820Z,34.40
2022-08-22T13:31:56.259Z,32.35
2022-08-22T13:34:39.991Z,32.83
2022-08-22T13:37:12.000Z,33.24
2022-08-22T13:39:42.344Z,32.32
2022-08-22T13:42:21.211Z,33.79
2022-08-22T13:44:58.225Z,34.48
2022-08-22T13:47:26.416Z,33.70
2022-08-22T13:50:07.875Z,33.54
2022-08-22T13:52:38.137Z,33.70
2022-08-22T13:55:12.177Z,34.28
2022-08-22T13:57:59.824Z,34.55
2022-08-22T14:00:48.694Z,34.44
2022-08-22T14:03:31.366Z,35.30
2022-08-22T14:06:32.812Z,35.45
2022-08-22T14:08:47.502Z,35.86
2022-08-22T14:11:18.235Z,35.77
2022-08-22T14:13:57.771Z,35.13
2022-08-22T14:16:27.303Z,34.83
2022-08-22T14:19:06.767Z,35.29
2022-08-22T14:21:41.278Z,35.18
2022-08-22T14:24:14.357Z,35.72
2022-08-22T14:26:49.127Z,36.31
2022-08-22T14:29:16.960Z,36.38
2022-08-22T14:32:04.173Z,35.14
2022-08-22T14:34:34.065Z,35.80
2022-08-22T14:37:15.341Z,36.20
2022-08-22T14:39:54.945Z,35.81
2022-08-22T14:42:25.498Z,35.76
2022-08-22T14:45:01.749Z,36.29
2022-08-22T14:47:55.105Z,37.23
2022-08-22T14:50:54.275Z,36.07
2022-08-22T14:53:32.872Z,36.27
2022-08-22T14:56:06.555Z,38.80
2022-08-22T14:58:45.621Z,37.83
2022-08-22T15:01:15.250Z,36.67
2022-08-22T15:03:42.710Z,36.74
2022-08-22T15:06:14.706Z,38.49
2022-08-22T15:08:51.066Z,38.66
2022-08-22T15:11:21.788Z,37.83
2022-08-22T15:13:56.936Z,38.90
2022-08-22T15:16:29.260Z,37.02
2022-08-22T15:18:56.257Z,38.88
2022-08-22T15:21:25.789Z,39.07
2022-08-22T15:23:54.352Z,39.91
2022-08-22T15:26:26.115Z,39.75
2022-08-22T15:29:04.489Z,39.76
2022-08-22T15:31:43.554Z,40.73
2022-08-22T15:34:19.869Z,41.01
2022-08-22T15:37:27.026Z,41.73
2022-08-22T15:39:59.304Z,40.85
2022-08-22T15:42:30.155Z,42.43
2022-08-22T15:45:04.992Z,44.89
2022-08-22T15:47:46.645Z,43.15
2022-08-22T15:50:27.978Z,43.98
2022-08-22T15:52:59.723Z,43.71
2022-08-22T15:55:34.287Z,44.03
2022-08-22T15:58:07.174Z,43.67
2022-08-22T16:00:36.389Z,44.50
2022-08-22T16:03:10.837Z,44.94
2022-08-22T16:05:41.250Z,44.90
2022-08-22T16:08:18.256Z,45.16
2022-08-22T16:10:54.837Z,45.42
2022-08-22T16:13:27.632Z,45.18
2022-08-22T16:16:06.726Z,45.13
2022-08-22T16:18:33.588Z,45.91
2022-08-22T16:21:03.566Z,46.46
2022-08-22T16:23:50.416Z,45.99
2022-08-22T16:26:17.269Z,46.36
2022-08-22T16:29:00.755Z,46.04
2022-08-22T16:31:30.769Z,46.44
2022-08-22T16:34:15.871Z,44.18
2022-08-22T16:37:11.592Z,45.88
2022-08-22T16:39:43.436Z,44.48
2022-08-22T16:42:13.317Z,44.03
2022-08-22T16:44:45.815Z,44.81
2022-08-22T16:47:21.343Z,45.87
2022-08-22T16:49:51.362Z,46.80
2022-08-22T16:52:21.297Z,47.24
2022-08-22T16:55:07.528Z,45.92
2022-08-22T16:58:05.688Z,46.11
2022-08-22T17:00:36.280Z,47.20
2022-08-22T17:03:21.877Z,47.24
2022-08-22T17:06:01.012Z,46.78
2022-08-22T17:08:36.960Z,47.11
2022-08-22T17:11:36.214Z,47.75
2022-08-22T17:14:16.148Z,47.66
2022-08-22T17:16:58.323Z,47.03
2022-08-22T17:19:30.851Z,46.89
2022-08-22T17:22:01.225Z,47.54
2022-08-22T17:24:54.600Z,47.77
2022-08-22T17:27:27.694Z,47.83
2022-08-22T17:30:04.766Z,48.36
2022-08-22T17:32:46.959Z,47.84
2022-08-22T17:35:33.540Z,48.52
2022-08-22T17:38:00.622Z,48.68
2022-08-22T17:40:36.466Z,48.36
2022-08-22T17:43:15.570Z,48.73
2022-08-22T17:45:45.439Z,49.09
2022-08-22T17:48:12.279Z,49.17
2022-08-22T17:50:45.232Z,49.50
2022-08-22T17:53:24.429Z,49.80
2022-08-22T17:55:51.321Z,49.97
2022-08-22T17:58:31.708Z,50.16
2022-08-22T18:01:10.594Z,50.29
2022-08-22T18:03:40.029Z,50.28
2022-08-22T18:06:09.984Z,50.48
2022-08-22T18:11:38.812Z,50.53
2022-08-22T18:14:19.160Z,50.55
2022-08-22T18:16:47.843Z,50.78
2022-08-22T18:19:23.827Z,51.00
2022-08-22T18:22:03.611Z,51.14
2022-08-22T18:24:33.223Z,52.07
2022-08-22T18:27:34.220Z,51.71
2022-08-22T18:30:07.276Z,51.67
2022-08-22T18:32:37.165Z,52.44
2022-08-22T18:35:12.202Z,52.47
2022-08-22T18:37:43.003Z,52.95
2022-08-22T18:40:28.930Z,52.83
2022-08-22T18:43:08.179Z,52.88
2022-08-22T18:45:44.741Z,53.74
2022-08-22T18:48:36.614Z,53.46
2022-08-22T18:51:22.445Z,53.42
2022-08-22T18:53:51.353Z,53.71
2022-08-22T18:56:37.062Z,54.22
2022-08-22T18:59:10.147Z,54.52
2022-08-22T19:01:55.710Z,54.87
2022-08-22T19:04:25.658Z,55.17
2022-08-22T19:07:11.029Z,55.27
2022-08-22T19:09:49.312Z,55.75
2022-08-22T19:12:16.443Z,56.02
2022-08-22T19:14:43.394Z,56.58
2022-08-22T19:17:22.623Z,56.79
2022-08-22T19:19:49.546Z,57.18
2022-08-22T19:22:19.433Z,57.54
2022-08-22T19:25:09.076Z,57.76
2022-08-22T19:27:39.011Z,58.66
2022-08-22T19:30:08.648Z,58.38
2022-08-22T19:32:46.864Z,58.31
2022-08-22T19:35:19.937Z,58.94
2022-08-22T19:37:58.645Z,59.57
2022-08-22T19:40:48.102Z,60.17
2022-08-22T19:43:30.323Z,60.08
2022-08-22T19:45:59.722Z,60.45
2022-08-22T19:48:40.636Z,59.93
2022-08-22T19:51:27.922Z,60.67
2022-08-22T19:54:01.060Z,60.88
2022-08-22T19:56:49.635Z,62.16
2022-08-22T19:59:25.706Z,62.38
2022-08-22T20:01:52.660Z,62.01
2022-08-22T20:04:30.781Z,62.03
2022-08-22T20:07:14.691Z,62.09
2022-08-22T20:10:02.241Z,62.06
2022-08-22T20:12:29.113Z,63.25
2022-08-22T20:14:56.325Z,63.51
2022-08-22T20:17:26.348Z,63.90
2022-08-22T20:22:40.126Z,63.56
2022-08-22T20:25:06.988Z,63.57
2022-08-22T20:28:00.105Z,63.29
2022-08-22T20:30:29.369Z,62.50
2022-08-22T20:33:09.239Z,62.23
2022-08-22T20:35:41.195Z,60.64
2022-08-22T20:38:14.752Z,61.19
2022-08-22T20:40:55.629Z,61.60
2022-08-22T20:43:24.323Z,60.67
2022-08-22T20:46:15.403Z,59.67
2022-08-22T20:48:43.645Z,59.63
2022-08-22T20:51:14.049Z,59.87
2022-08-22T20:53:41.557Z,58.93
2022-08-22T20:56:08.561Z,59.63
2022-08-22T20:58:39.456Z,59.63
2022-08-22T21:01:09.893Z,59.88
2022-08-22T21:03:36.951Z,58.17
2022-08-22T21:06:28.171Z,59.00
2022-08-22T21:09:09.608Z,59.82
2022-08-22T21:11:36.527Z,59.83
2022-08-22T21:14:17.153Z,59.93
2022-08-22T21:16:44.082Z,60.30
2022-08-22T21:19:17.467Z,59.75
2022-08-22T21:21:44.413Z,59.74
2022-08-22T21:24:11.333Z,60.00
2022-08-22T21:26:46.146Z,60.40
2022-08-22T21:29:13.042Z,59.68
2022-08-22T21:31:42.913Z,59.95
2022-08-22T21:34:14.553Z,59.63
2022-08-22T21:36:41.685Z,60.35
2022-08-22T21:39:23.777Z,59.86
2022-08-22T21:41:53.437Z,60.66
2022-08-22T21:44:43.369Z,60.48
2022-08-22T21:47:16.546Z,60.50
2022-08-22T21:49:58.293Z,61.16
2022-08-22T21:52:26.099Z,60.31
2022-08-22T21:54:53.013Z,60.55
2022-08-22T21:57:31.445Z,61.18
2022-08-22T21:59:58.830Z,60.10
2022-08-22T22:02:29.478Z,60.07
2022-08-22T22:04:58.933Z,60.59
2022-08-22T22:07:26.595Z,60.15
2022-08-22T22:09:54.926Z,59.85
2022-08-22T22:12:23.125Z,59.48
2022-08-22T22:14:50.500Z,59.18
2022-08-22T22:17:18.242Z,58.39
2022-08-22T22:19:45.345Z,58.01
2022-08-22T22:22:13.304Z,57.58
2022-08-22T22:24:40.200Z,57.31
2022-08-22T22:27:07.200Z,57.75
2022-08-22T22:29:34.565Z,58.03
2022-08-22T22:32:01.707Z,57.72
2022-08-22T22:34:28.619Z,58.02
2022-08-22T22:36:55.599Z,58.68
2022-08-22T22:39:22.538Z,58.91
2022-08-22T22:41:49.428Z,57.29
2022-08-22T22:44:16.303Z,57.18
2022-08-22T22:46:43.245Z,57.00
2022-08-22T22:49:10.219Z,56.59
2022-08-22T22:51:37.213Z,57.17
2022-08-22T22:54:04.229Z,56.72
2022-08-22T22:56:31.552Z,56.82
2022-08-22T22:59:01.166Z,56.93
2022-08-22T23:01:59.213Z,57.47
2022-08-22T23:04:26.132Z,57.19
2022-08-22T23:06:53.090Z,57.25
2022-08-22T23:09:20.023Z,57.43
2022-08-22T23:11:47.359Z,57.42
2022-08-22T23:14:14.291Z,57.42
2022-08-22T23:16:41.246Z,57.57
2022-08-22T23:19:09.196Z,57.91
2022-08-22T23:21:36.174Z,57.83
2022-08-22T23:24:03.519Z,58.29
2022-08-22T23:26:30.541Z,58.01
2022-08-22T23:28:57.774Z,58.49
2022-08-22T23:31:33.915Z,58.68
2022-08-22T23:34:03.342Z,59.01
2022-08-22T23:36:30.291Z,59.12
2022-08-22T23:38:57.247Z,59.46
2022-08-22T23:41:24.224Z,59.78
2022-08-22T23:43:52.476Z,60.11
2022-08-22T23:46:21.191Z,60.21
2022-08-22T23:48:48.318Z,60.22
2022-08-22T23:51:17.289Z,60.75
2022-08-22T23:53:50.654Z,60.51
2022-08-22T23:56:20.107Z,60.84
2022-08-22T23:58:49.297Z,61.41
